createdAt,value
2022-09-13T00:01:17.918Z,99820.16
2022-09-13T00:03:49.851Z,99816.09
2022-09-13T00:06:23.064Z,99812.95
2022-09-13T00:08:55.075Z,99810.80
2022-09-13T00:11:29.664Z,99818.18
2022-09-13T00:14:01.577Z,99809.94
2022-09-13T00:16:33.513Z,99810.45
2022-09-13T00:19:05.763Z,99813.42
2022-09-13T00:21:37.925Z,99811.03
2022-09-13T00:24:10.691Z,99812.91
2022-09-13T00:26:42.796Z,99804.16
2022-09-13T00:29:14.832Z,99802.33
2022-09-13T00:31:46.796Z,99802.33
2022-09-13T00:34:18.705Z,99804.24
2022-09-13T00:36:50.592Z,99797.45
2022-09-13T00:39:22.967Z,99799.41
2022-09-13T00:41:55.127Z,99796.19
2022-09-13T00:45:00.014Z,99795.74
2022-09-13T00:47:39.261Z,99802.16
2022-09-13T00:50:19.959Z,99799.77
2022-09-13T00:52:57.930Z,99786.98
2022-09-13T00:55:35.536Z,99794.25
2022-09-13T00:58:10.536Z,99800.73
2022-09-13T01:00:43.509Z,99801.03
2022-09-13T01:03:18.174Z,99800.58
2022-09-13T01:05:52.961Z,99799.94
2022-09-13T01:08:25.312Z,99805.50
2022-09-13T01:11:00.210Z,99794.41
2022-09-13T01:13:35.065Z,99796.38
2022-09-13T01:16:07.532Z,99795.77
2022-09-13T01:18:39.503Z,99796.84
2022-09-13T01:21:45.884Z,99791.00
2022-09-13T01:24:32.831Z,99792.00
2022-09-13T01:27:42.904Z,99787.76
2022-09-13T01:30:18.253Z,99787.98
2022-09-13T01:33:24.205Z,99788.98
2022-09-13T01:36:31.973Z,99795.30
2022-09-13T01:39:09.416Z,99795.50
2022-09-13T01:42:07.015Z,99798.30
2022-09-13T01:45:01.013Z,99790.51
2022-09-13T01:47:46.254Z,99801.92
2022-09-13T01:50:23.785Z,99799.30
2022-09-13T01:53:10.161Z,99796.58
2022-09-13T01:55:47.499Z,99794.75
2022-09-13T01:58:22.318Z,99794.61
2022-09-13T02:01:06.279Z,99786.50
2022-09-13T02:03:47.028Z,99783.66
2022-09-13T02:06:22.269Z,99781.66
2022-09-13T02:09:01.025Z,99784.06
2022-09-13T02:11:35.027Z,99785.53
2022-09-13T02:14:15.336Z,99780.04
2022-09-13T02:16:50.997Z,99782.45
2022-09-13T02:19:29.366Z,99779.57
2022-09-13T02:22:03.797Z,99784.59
2022-09-13T02:24:38.632Z,99780.03
2022-09-13T02:27:16.496Z,99775.57
2022-09-13T02:29:51.761Z,99779.02
2022-09-13T02:32:30.262Z,99781.64
2022-09-13T02:35:08.041Z,99773.95
2022-09-13T02:37:42.222Z,99772.34
2022-09-13T02:40:21.566Z,99766.53
2022-09-13T02:42:59.481Z,99769.48
2022-09-13T02:45:34.453Z,99762.84
2022-09-13T02:48:16.480Z,99761.47
2022-09-13T02:51:09.452Z,99760.90
2022-09-13T02:53:47.194Z,99765.53
2022-09-13T02:56:34.678Z,99769.40
2022-09-13T02:59:18.929Z,99766.06
2022-09-13T03:01:59.853Z,99768.00
2022-09-13T03:04:31.902Z,99767.13
2022-09-13T03:07:07.780Z,99763.69
2022-09-13T03:09:42.764Z,99767.92
2022-09-13T03:12:17.789Z,99759.99
2022-09-13T03:14:55.615Z,99762.61
2022-09-13T03:17:52.924Z,99758.92
2022-09-13T03:20:52.858Z,99763.84
2022-09-13T03:23:33.435Z,99748.58
2022-09-13T03:26:11.153Z,99754.14
2022-09-13T03:28:55.009Z,99744.01
2022-09-13T03:31:54.082Z,99744.31
2022-09-13T03:34:41.079Z,99746.34
2022-09-13T03:37:35.895Z,99741.32
2022-09-13T03:40:19.820Z,99750.98
2022-09-13T03:43:06.635Z,99746.77
2022-09-13T03:45:47.652Z,99751.37
2022-09-13T03:48:20.846Z,99750.55
2022-09-13T03:50:52.961Z,99754.97
2022-09-13T03:53:31.087Z,99745.55
2022-09-13T03:56:05.094Z,99748.52
2022-09-13T03:58:37.121Z,99741.05
2022-09-13T04:01:10.623Z,99740.52
2022-09-13T04:03:42.801Z,99734.82
2022-09-13T04:06:14.974Z,99743.20
2022-09-13T04:08:47.366Z,99742.50
2022-09-13T04:11:20.824Z,99736.64
2022-09-13T04:13:52.860Z,99737.73
2022-09-13T04:16:25.051Z,99731.75
2022-09-13T04:18:57.175Z,99733.65
2022-09-13T04:21:29.224Z,99725.75
2022-09-13T04:24:01.151Z,99728.11
2022-09-13T04:26:34.983Z,99728.95
2022-09-13T04:29:07.039Z,99725.38
2022-09-13T04:31:39.474Z,99728.83
2022-09-13T04:34:11.834Z,99733.97
2022-09-13T04:36:44.226Z,99747.36
2022-09-13T04:39:16.378Z,99740.53
2022-09-13T04:41:49.972Z,99737.70
2022-09-13T04:44:23.184Z,99740.16
2022-09-13T04:46:55.913Z,99740.89
2022-09-13T04:49:28.059Z,99740.70
2022-09-13T04:52:00.377Z,99747.46
2022-09-13T04:54:32.330Z,99743.36
2022-09-13T04:57:04.345Z,99747.55
2022-09-13T04:59:36.548Z,99737.87
2022-09-13T05:02:08.554Z,99746.55
2022-09-13T05:04:40.839Z,99743.19
2022-09-13T05:07:13.035Z,99752.39
2022-09-13T05:09:45.369Z,99751.24
2022-09-13T05:12:17.258Z,99760.12
2022-09-13T05:14:49.408Z,99750.71
2022-09-13T05:17:21.964Z,99745.63
2022-09-13T05:19:54.016Z,99748.38
2022-09-13T05:22:27.131Z,99756.48
2022-09-13T05:24:59.344Z,99752.27
2022-09-13T05:27:32.580Z,99744.34
2022-09-13T05:30:05.267Z,99748.70
2022-09-13T05:32:37.504Z,99751.97
2022-09-13T05:35:10.049Z,99746.36
2022-09-13T05:37:42.157Z,99746.16
2022-09-13T05:40:14.450Z,99748.16
2022-09-13T05:42:46.510Z,99741.52
2022-09-13T05:45:18.914Z,99742.84
2022-09-13T05:47:52.915Z,99745.14
2022-09-13T05:50:54.208Z,99740.28
2022-09-13T05:52:58.867Z,99740.08
2022-09-13T05:55:31.394Z,99740.59
2022-09-13T05:58:04.102Z,99729.92
2022-09-13T06:00:36.043Z,99729.92
2022-09-13T06:03:08.947Z,99740.28
2022-09-13T06:05:41.167Z,99741.52
2022-09-13T06:08:13.413Z,99743.85
2022-09-13T06:10:45.503Z,99745.02
2022-09-13T06:13:17.574Z,99740.59
2022-09-13T06:15:49.806Z,99741.04
2022-09-13T06:18:22.167Z,99739.43
2022-09-13T06:21:00.379Z,99741.66
2022-09-13T06:23:33.014Z,99744.81
2022-09-13T06:26:07.324Z,99741.76
2022-09-13T06:28:40.423Z,99741.11
2022-09-13T06:31:15.938Z,99744.45
2022-09-13T06:33:48.092Z,99746.73
2022-09-13T06:36:20.853Z,99727.22
2022-09-13T06:38:53.010Z,99753.39
2022-09-13T06:41:27.477Z,99736.34
2022-09-13T06:44:02.904Z,99736.34
2022-09-13T06:46:37.234Z,99738.95
2022-09-13T06:49:11.092Z,99738.95
2022-09-13T06:51:43.077Z,99743.33
2022-09-13T06:54:15.130Z,99745.41
2022-09-13T06:56:47.312Z,99739.14
2022-09-13T06:59:19.310Z,99738.44
2022-09-13T07:01:51.853Z,99733.14
2022-09-13T07:04:24.378Z,99733.14
2022-09-13T07:06:56.594Z,99724.45
2022-09-13T07:09:28.965Z,99726.23
2022-09-13T07:12:01.144Z,99720.60
2022-09-13T07:14:33.861Z,99720.75
2022-09-13T07:17:06.228Z,99726.41
2022-09-13T07:19:38.607Z,99712.11
2022-09-13T07:22:10.750Z,99712.11
2022-09-13T07:24:42.677Z,99704.29
2022-09-13T07:27:16.995Z,99712.86
2022-09-13T07:29:48.880Z,99700.55
2022-09-13T07:32:21.054Z,99704.30
2022-09-13T07:34:53.286Z,99707.53
2022-09-13T07:37:25.379Z,99703.25
2022-09-13T07:39:57.622Z,99701.74
2022-09-13T07:42:29.772Z,99695.09
2022-09-13T07:45:02.170Z,99697.55
2022-09-13T07:47:34.925Z,99693.18
2022-09-13T07:50:07.295Z,99691.22
2022-09-13T07:52:40.331Z,99691.55
2022-09-13T07:55:12.302Z,99682.06
2022-09-13T07:57:44.463Z,99681.17
2022-09-13T08:00:16.883Z,99674.18
2022-09-13T08:02:48.913Z,99675.23
2022-09-13T08:05:21.041Z,99674.13
2022-09-13T08:07:53.080Z,99669.47
2022-09-13T08:10:25.456Z,99666.42
2022-09-13T08:12:57.796Z,99665.77
2022-09-13T08:15:30.325Z,99662.38
2022-09-13T08:18:02.430Z,99666.66
2022-09-13T08:20:39.228Z,99671.63
2022-09-13T08:23:12.645Z,99663.91
2022-09-13T08:25:44.736Z,99672.23
2022-09-13T08:28:19.253Z,99663.70
2022-09-13T08:30:51.248Z,99665.55
2022-09-13T08:33:23.451Z,99659.44
2022-09-13T08:35:55.760Z,99659.67
2022-09-13T08:38:27.887Z,99655.70
2022-09-13T08:41:02.768Z,99655.47
2022-09-13T08:43:54.089Z,99650.05
2022-09-13T08:46:32.549Z,99657.61
2022-09-13T08:49:07.407Z,99653.38
2022-09-13T08:51:52.041Z,99648.75
2022-09-13T08:54:24.168Z,99640.82
2022-09-13T08:57:11.046Z,99638.98
2022-09-13T09:00:08.738Z,99630.02
2022-09-13T09:02:50.110Z,99618.17
2022-09-13T09:05:33.760Z,99615.11
2022-09-13T09:08:17.632Z,99615.18
2022-09-13T09:10:52.101Z,99609.08
2022-09-13T09:13:33.084Z,99600.91
2022-09-13T09:16:14.121Z,99599.73
2022-09-13T09:18:48.793Z,99595.53
2022-09-13T09:21:22.147Z,99594.89
2022-09-13T09:23:57.017Z,99591.12
2022-09-13T09:26:31.604Z,99591.81
2022-09-13T09:29:25.077Z,99590.83
2022-09-13T09:32:15.459Z,99586.23
2022-09-13T09:35:09.093Z,99591.81
2022-09-13T09:37:42.240Z,99583.27
2022-09-13T09:40:17.648Z,99579.77
2022-09-13T09:42:52.910Z,99580.88
2022-09-13T09:45:30.907Z,99579.50
2022-09-13T09:48:05.816Z,99576.29
2022-09-13T09:50:42.251Z,99576.81
2022-09-13T09:53:27.858Z,99578.69
2022-09-13T09:56:05.872Z,99572.28
2022-09-13T09:58:43.433Z,99567.80
2022-09-13T10:01:25.571Z,99561.61
2022-09-13T10:04:16.605Z,99567.92
2022-09-13T10:06:50.229Z,99563.87
2022-09-13T10:09:24.188Z,99563.73
2022-09-13T10:11:59.011Z,99541.16
2022-09-13T10:14:40.292Z,99541.16
2022-09-13T10:17:31.019Z,99567.21
2022-09-13T10:20:06.120Z,99564.02
2022-09-13T10:22:38.538Z,99558.25
2022-09-13T10:25:18.746Z,99570.73
2022-09-13T10:27:57.297Z,99562.04
2022-09-13T10:30:38.310Z,99557.37
2022-09-13T10:33:22.125Z,99554.42
2022-09-13T10:35:57.774Z,99549.53
2022-09-13T10:38:32.747Z,99555.97
2022-09-13T10:41:08.157Z,99552.33
2022-09-13T10:43:41.100Z,99533.98
2022-09-13T10:46:16.023Z,99543.33
2022-09-13T10:48:59.550Z,99550.85
2022-09-13T10:51:36.233Z,99546.36
2022-09-13T10:54:23.522Z,99541.86
2022-09-13T10:56:55.891Z,99536.64
2022-09-13T10:59:33.199Z,99540.54
2022-09-13T11:02:35.425Z,99535.48
2022-09-13T11:05:29.064Z,99545.42
2022-09-13T11:08:16.241Z,99533.38
2022-09-13T11:10:57.415Z,99530.00
2022-09-13T11:13:32.608Z,99524.25
2022-09-13T11:16:22.737Z,99524.93
2022-09-13T11:19:20.591Z,99527.41
2022-09-13T11:22:07.528Z,99523.72
2022-09-13T11:24:45.375Z,99523.16
2022-09-13T11:27:23.684Z,99521.35
2022-09-13T11:30:18.538Z,99509.16
2022-09-13T11:32:56.352Z,99509.31
2022-09-13T11:36:04.226Z,99486.56
2022-09-13T11:38:42.226Z,99509.38
2022-09-13T11:41:31.534Z,99499.11
2022-09-13T11:44:36.525Z,99494.66
2022-09-13T11:47:17.296Z,99505.48
2022-09-13T11:50:01.130Z,99502.45
2022-09-13T11:53:00.100Z,99506.91
2022-09-13T11:55:37.926Z,99494.48
2022-09-13T11:58:18.852Z,99489.44
2022-09-13T12:00:53.962Z,99493.07
2022-09-13T12:03:43.908Z,99479.45
2022-09-13T12:06:22.109Z,99487.80
2022-09-13T12:08:57.044Z,99485.53
2022-09-13T12:11:41.630Z,99480.34
2022-09-13T12:14:25.217Z,99489.41
2022-09-13T12:17:00.387Z,99487.05
2022-09-13T12:19:44.294Z,99482.97
2022-09-13T12:22:16.950Z,99484.33
2022-09-13T12:24:55.752Z,99482.91
2022-09-13T12:27:42.410Z,99479.65
2022-09-13T12:30:20.790Z,99471.12
2022-09-13T12:32:58.039Z,99478.63
2022-09-13T12:35:35.917Z,99469.25
2022-09-13T12:38:22.964Z,99473.00
2022-09-13T12:41:20.515Z,99461.91
2022-09-13T12:44:04.264Z,99460.69
2022-09-13T12:47:01.016Z,99457.78
2022-09-13T12:49:53.234Z,99454.56
2022-09-13T12:52:57.104Z,99457.02
2022-09-13T12:55:47.151Z,99437.69
2022-09-13T12:58:44.386Z,99438.91
2022-09-13T13:01:19.737Z,99430.55
2022-09-13T13:03:54.848Z,99428.95
2022-09-13T13:06:33.632Z,99427.84
2022-09-13T13:09:40.986Z,99422.86
2022-09-13T13:12:31.043Z,99435.59
2022-09-13T13:15:09.540Z,99426.40
2022-09-13T13:17:51.295Z,99432.43
2022-09-13T13:20:44.732Z,99422.80
2022-09-13T13:23:23.691Z,99427.25
2022-09-13T13:26:30.040Z,99426.14
2022-09-13T13:29:08.009Z,99410.64
2022-09-13T13:31:42.701Z,99412.69
2022-09-13T13:34:20.609Z,99420.78
2022-09-13T13:37:13.376Z,99406.69
2022-09-13T13:39:48.236Z,99402.62
2022-09-13T13:42:34.455Z,99395.89
2022-09-13T13:45:09.747Z,99393.63
2022-09-13T13:47:44.707Z,99392.08
2022-09-13T13:50:20.156Z,99387.02
2022-09-13T13:52:56.893Z,99376.28
2022-09-13T13:55:49.747Z,99381.72
2022-09-13T13:58:27.823Z,99375.72
2022-09-13T14:01:03.076Z,99369.44
2022-09-13T14:03:44.120Z,99373.00
2022-09-13T14:06:28.031Z,99369.81
2022-09-13T14:09:06.375Z,99371.05
2022-09-13T14:12:05.347Z,99368.52
2022-09-13T14:15:05.522Z,99361.80
2022-09-13T14:17:46.221Z,99369.31
2022-09-13T14:20:21.584Z,99360.79
2022-09-13T14:22:55.163Z,99362.34
2022-09-13T14:25:27.917Z,99366.79
2022-09-13T14:28:02.519Z,99362.91
2022-09-13T14:30:37.674Z,99368.20
2022-09-13T14:33:13.201Z,99376.16
2022-09-13T14:35:46.437Z,99379.67
2022-09-13T14:38:25.600Z,99383.42
2022-09-13T14:41:06.821Z,99388.00
2022-09-13T14:43:39.827Z,99381.27
2022-09-13T14:46:32.885Z,99377.92
2022-09-13T14:49:08.377Z,99380.95
2022-09-13T14:51:49.876Z,99369.78
2022-09-13T14:54:36.882Z,99379.53
2022-09-13T14:57:12.211Z,99369.30
2022-09-13T14:59:48.045Z,99372.36
2022-09-13T15:02:26.555Z,99363.96
2022-09-13T15:05:01.427Z,99362.53
2022-09-13T15:07:38.746Z,99369.03
2022-09-13T15:10:25.638Z,99371.20
2022-09-13T15:13:10.549Z,99370.63
2022-09-13T15:15:46.281Z,99370.98
2022-09-13T15:18:21.199Z,99367.08
2022-09-13T15:21:09.862Z,99367.89
2022-09-13T15:23:44.422Z,99361.56
2022-09-13T15:26:26.111Z,99363.15
2022-09-13T15:29:05.588Z,99357.52
2022-09-13T15:31:38.257Z,99360.80
2022-09-13T15:34:22.374Z,99357.81
2022-09-13T15:37:15.838Z,99360.83
2022-09-13T15:39:51.053Z,99362.16
2022-09-13T15:42:23.264Z,99355.55
2022-09-13T15:44:55.404Z,99365.67
2022-09-13T15:47:27.501Z,99357.97
2022-09-13T15:50:00.044Z,99346.56
2022-09-13T15:52:33.671Z,99359.06
2022-09-13T15:55:06.560Z,99347.66
2022-09-13T15:57:38.778Z,99353.89
2022-09-13T16:00:19.560Z,99347.89
2022-09-13T16:02:52.491Z,99335.14
2022-09-13T16:05:27.706Z,99342.95
2022-09-13T16:08:00.692Z,99341.40
2022-09-13T16:10:33.391Z,99344.16
2022-09-13T16:13:05.869Z,99342.61
2022-09-13T16:15:38.573Z,99346.34
2022-09-13T16:18:12.791Z,99340.34
2022-09-13T16:20:46.452Z,99334.29
2022-09-13T16:23:19.124Z,99340.67
2022-09-13T16:25:54.226Z,99339.23
2022-09-13T16:28:27.185Z,99337.91
2022-09-13T16:30:59.365Z,99342.49
2022-09-13T16:33:31.767Z,99325.66
2022-09-13T16:36:04.047Z,99335.14
2022-09-13T16:38:36.157Z,99337.44
2022-09-13T16:41:09.292Z,99336.26
2022-09-13T16:43:41.664Z,99340.92
2022-09-13T16:46:15.174Z,99333.48
2022-09-13T16:48:49.535Z,99325.90
2022-09-13T16:51:22.314Z,99332.16
2022-09-13T16:53:55.323Z,99325.31
2022-09-13T16:56:27.889Z,99328.77
2022-09-13T16:59:00.504Z,99332.62
2022-09-13T17:01:32.795Z,99325.66
2022-09-13T17:04:06.058Z,99332.88
2022-09-13T17:06:39.157Z,99332.02
2022-09-13T17:09:12.931Z,99327.11
2022-09-13T17:11:46.300Z,99325.52
2022-09-13T17:14:19.005Z,99322.05
2022-09-13T17:16:57.151Z,99320.61
2022-09-13T17:19:33.783Z,99315.44
2022-09-13T17:22:08.226Z,99303.06
2022-09-13T17:24:42.444Z,99282.38
2022-09-13T17:27:15.384Z,99282.38
2022-09-13T17:29:48.012Z,99302.57
2022-09-13T17:32:21.221Z,99297.28
2022-09-13T17:34:53.921Z,99292.27
2022-09-13T17:37:28.013Z,99292.97
2022-09-13T17:40:03.542Z,99253.92
2022-09-13T17:42:37.011Z,99280.72
2022-09-13T17:45:10.766Z,99281.69
2022-09-13T17:47:43.857Z,99248.52
2022-09-13T17:50:17.292Z,99248.52
2022-09-13T17:52:51.073Z,99265.33
2022-09-13T17:55:23.892Z,99264.63
2022-09-13T17:57:56.147Z,99270.88
2022-09-13T18:00:29.273Z,99267.49
2022-09-13T18:03:02.686Z,99264.03
2022-09-13T18:05:35.693Z,99259.09
2022-09-13T18:08:08.390Z,99241.26
2022-09-13T18:10:58.498Z,99241.26
2022-09-13T18:13:15.605Z,99250.14
2022-09-13T18:15:50.200Z,99246.06
2022-09-13T18:18:24.382Z,99246.06
2022-09-13T18:20:57.312Z,99247.36
2022-09-13T18:23:29.979Z,99212.38
2022-09-13T18:26:11.174Z,99247.10
2022-09-13T18:28:44.134Z,99223.94
2022-09-13T18:31:18.585Z,99223.94
2022-09-13T18:33:57.350Z,99243.59
2022-09-13T18:36:31.320Z,99236.87
2022-09-13T18:39:04.741Z,99236.38
2022-09-13T18:41:41.006Z,99229.65
2022-09-13T18:44:14.342Z,99225.78
2022-09-13T18:46:47.717Z,99224.33
2022-09-13T18:49:20.249Z,99218.67
2022-09-13T18:51:53.016Z,99214.69
2022-09-13T18:54:25.007Z,99217.91
2022-09-13T18:56:57.346Z,99214.63
2022-09-13T18:59:31.282Z,99211.39
2022-09-13T19:02:04.721Z,99209.08
2022-09-13T19:04:38.831Z,99203.09
2022-09-13T19:07:13.810Z,99192.66
2022-09-13T19:09:46.294Z,99192.77
2022-09-13T19:12:18.753Z,99182.44
2022-09-13T19:14:51.382Z,99177.52
2022-09-13T19:17:23.506Z,99170.68
2022-09-13T19:19:55.882Z,99169.12
2022-09-13T19:22:31.104Z,99167.52
2022-09-13T19:25:03.903Z,99164.27
2022-09-13T19:27:35.954Z,99154.59
2022-09-13T19:30:08.746Z,99150.14
2022-09-13T19:32:40.982Z,99144.05
2022-09-13T19:35:13.302Z,99144.97
2022-09-13T19:37:45.338Z,99137.20
2022-09-13T19:40:17.434Z,99134.57
2022-09-13T19:42:49.830Z,99133.72
2022-09-13T19:45:23.182Z,99115.38
2022-09-13T19:48:37.030Z,99119.47
2022-09-13T19:50:29.738Z,99122.95
2022-09-13T19:53:01.784Z,99104.39
2022-09-13T19:55:33.793Z,99118.50
2022-09-13T19:58:06.013Z,99111.56
2022-09-13T20:00:38.930Z,99102.69
2022-09-13T20:03:11.846Z,99107.14
2022-09-13T20:05:43.895Z,99102.69
2022-09-13T20:08:16.345Z,99090.36
2022-09-13T20:10:48.527Z,99087.73
2022-09-13T20:13:20.616Z,99080.53
2022-09-13T20:15:53.152Z,99080.53
2022-09-13T20:18:25.433Z,99079.82
2022-09-13T20:20:58.874Z,99079.82
2022-09-13T20:23:30.831Z,99074.55
2022-09-13T20:26:03.699Z,99064.86
2022-09-13T20:28:36.409Z,99067.48
2022-09-13T20:31:08.975Z,99071.80
2022-09-13T20:33:42.980Z,99068.09
2022-09-13T20:36:15.751Z,99052.27
2022-09-13T20:38:49.986Z,99054.91
2022-09-13T20:41:22.753Z,99057.55
2022-09-13T20:43:55.163Z,99045.33
2022-09-13T20:46:27.523Z,99045.33
2022-09-13T20:49:01.297Z,99037.42
2022-09-13T20:51:34.844Z,99047.11
2022-09-13T20:54:07.170Z,99040.98
2022-09-13T20:56:39.413Z,99029.52
2022-09-13T20:59:11.922Z,99030.59
2022-09-13T21:01:44.087Z,99028.06
2022-09-13T21:04:17.593Z,99030.92
2022-09-13T21:07:10.976Z,99021.34
2022-09-13T21:09:40.795Z,99019.64
2022-09-13T21:12:14.443Z,99026.84
2022-09-13T21:14:48.004Z,99027.91
2022-09-13T21:17:20.332Z,99019.41
2022-09-13T21:19:53.091Z,99015.15
2022-09-13T21:22:25.280Z,99010.95
2022-09-13T21:24:57.305Z,99008.43
2022-09-13T21:27:29.321Z,99004.97
2022-09-13T21:30:02.180Z,99004.13
2022-09-13T21:32:34.725Z,98999.07
2022-09-13T21:35:07.116Z,98991.31
2022-09-13T21:37:39.191Z,98987.09
2022-09-13T21:40:11.767Z,98983.63
2022-09-13T21:42:43.892Z,98979.33
2022-09-13T21:45:15.995Z,98981.81
2022-09-13T21:47:49.430Z,98979.33
2022-09-13T21:50:21.221Z,98981.00
2022-09-13T21:52:53.256Z,98970.57
2022-09-13T21:55:26.957Z,98966.16
2022-09-13T21:57:59.495Z,98974.88
2022-09-13T22:00:31.565Z,98973.09
2022-09-13T22:03:03.431Z,98974.88
2022-09-13T22:05:35.403Z,98973.31
2022-09-13T22:08:07.293Z,98979.77
2022-09-13T22:10:39.514Z,98974.72
2022-09-13T22:13:11.514Z,98966.22
2022-09-13T22:15:43.455Z,98972.56
2022-09-13T22:18:15.411Z,98963.20
2022-09-13T22:20:47.559Z,98954.71
2022-09-13T22:23:19.687Z,98963.54
2022-09-13T22:25:53.062Z,98953.15
2022-09-13T22:28:25.015Z,98953.26
2022-09-13T22:30:57.055Z,98957.78
2022-09-13T22:33:29.121Z,98946.43
2022-09-13T22:36:03.205Z,98944.73
2022-09-13T22:38:36.191Z,98943.05
2022-09-13T22:41:11.552Z,98938.64
2022-09-13T22:43:44.111Z,98936.23
2022-09-13T22:46:21.623Z,98930.22
2022-09-13T22:48:55.395Z,98926.87
2022-09-13T22:51:27.953Z,98918.13
2022-09-13T22:54:06.254Z,98913.82
2022-09-13T22:56:35.566Z,98909.63
2022-09-13T22:59:10.678Z,98910.48
2022-09-13T23:01:43.034Z,98904.36
2022-09-13T23:04:15.640Z,98911.41
2022-09-13T23:06:47.972Z,98900.88
2022-09-13T23:09:20.305Z,98896.80
2022-09-13T23:11:52.210Z,98898.83
2022-09-13T23:14:24.155Z,98896.53
2022-09-13T23:16:56.543Z,98891.27
2022-09-13T23:19:29.729Z,98887.07
2022-09-13T23:22:01.711Z,98878.35
2022-09-13T23:24:33.780Z,98873.91
2022-09-13T23:27:06.441Z,98874.77
2022-09-13T23:29:38.326Z,98871.05
2022-09-13T23:32:10.543Z,98872.62
2022-09-13T23:34:42.599Z,98869.02
2022-09-13T23:37:14.521Z,98866.39
2022-09-13T23:39:46.563Z,98874.29
2022-09-13T23:42:18.501Z,98862.83
2022-09-13T23:44:50.452Z,98869.77
2022-09-13T23:47:22.606Z,98860.91
2022-09-13T23:49:54.533Z,98858.27
2022-09-13T23:52:26.380Z,98848.70
2022-09-13T23:54:59.920Z,98851.34
2022-09-13T23:57:32.627Z,98846.92
